createdAt,value
2022-08-31T00:03:36.836Z,15.98
2022-08-31T00:08:42.730Z,15.88
2022-08-31T00:13:48.819Z,15.80
2022-08-31T00:18:54.743Z,15.66
2022-08-31T00:24:03.381Z,15.55
2022-08-31T00:29:09.853Z,15.50
2022-08-31T00:34:15.905Z,15.44
2022-08-31T00:39:22.370Z,15.32
2022-08-31T00:44:28.106Z,15.21
2022-08-31T00:49:36.030Z,15.15
2022-08-31T00:54:45.966Z,15.12
2022-08-31T00:59:52.484Z,15.03
2022-08-31T01:04:58.297Z,14.96
2022-08-31T01:10:05.859Z,14.86
2022-08-31T01:15:14.822Z,14.79
2022-08-31T01:20:25.800Z,14.75
2022-08-31T01:25:33.781Z,14.69
2022-08-31T01:30:41.438Z,14.62
2022-08-31T01:35:48.666Z,14.55
2022-08-31T01:40:58.171Z,14.50
2022-08-31T01:46:05.690Z,14.50
2022-08-31T01:51:18.730Z,14.41
2022-08-31T01:56:26.589Z,14.24
2022-08-31T02:01:35.524Z,14.17
2022-08-31T02:06:43.356Z,14.16
2022-08-31T02:11:50.434Z,14.24
2022-08-31T02:16:57.106Z,14.29
2022-08-31T02:22:03.035Z,14.23
2022-08-31T02:27:09.045Z,14.19
2022-08-31T02:32:19.793Z,14.19
2022-08-31T02:37:26.370Z,14.14
2022-08-31T02:42:52.743Z,14.09
2022-08-31T02:47:59.787Z,14.07
2022-08-31T02:53:11.585Z,14.08
2022-08-31T02:58:23.305Z,14.11
2022-08-31T03:03:30.136Z,14.10
2022-08-31T03:08:36.061Z,14.03
2022-08-31T03:13:42.820Z,14.02
2022-08-31T03:18:48.767Z,14.03
2022-08-31T03:23:54.817Z,14.06
2022-08-31T03:29:00.831Z,14.07
2022-08-31T03:34:16.203Z,14.06
2022-08-31T03:39:22.487Z,14.14
2022-08-31T03:44:28.553Z,14.22
2022-08-31T03:49:34.453Z,14.25
2022-08-31T03:54:58.598Z,14.29
2022-08-31T04:00:07.083Z,14.31
2022-08-31T04:05:21.744Z,14.39
2022-08-31T04:10:48.177Z,14.46
2022-08-31T04:16:14.730Z,14.55
2022-08-31T04:21:31.208Z,14.71
2022-08-31T04:26:40.660Z,14.91
2022-08-31T04:31:47.266Z,15.16
2022-08-31T04:36:53.379Z,15.53
2022-08-31T04:41:59.281Z,16.63
2022-08-31T04:47:08.274Z,17.52
2022-08-31T04:52:14.211Z,17.28
2022-08-31T04:57:20.207Z,17.26
2022-08-31T05:02:26.156Z,17.91
2022-08-31T05:07:39.024Z,18.26
2022-08-31T05:12:46.138Z,18.35
2022-08-31T05:17:52.418Z,18.43
2022-08-31T05:22:59.215Z,18.41
2022-08-31T05:28:05.370Z,18.43
2022-08-31T05:33:11.505Z,18.57
2022-08-31T05:38:17.683Z,18.81
2022-08-31T05:43:24.586Z,18.79
2022-08-31T05:48:33.624Z,18.78
2022-08-31T05:53:40.747Z,18.91
2022-08-31T05:58:47.858Z,19.75
2022-08-31T06:03:54.274Z,20.52
2022-08-31T06:09:00.921Z,21.09
2022-08-31T06:14:09.573Z,21.45
2022-08-31T06:19:17.039Z,21.69
2022-08-31T06:24:25.794Z,22.47
2022-08-31T06:29:31.957Z,24.71
2022-08-31T06:34:40.108Z,25.82
2022-08-31T06:39:47.828Z,26.08
2022-08-31T06:45:13.739Z,25.63
2022-08-31T06:50:22.102Z,26.24
2022-08-31T06:55:28.773Z,26.80
2022-08-31T07:00:53.970Z,27.47
2022-08-31T07:06:25.889Z,29.95
2022-08-31T07:11:34.417Z,32.22
2022-08-31T07:16:39.323Z,32.58
2022-08-31T07:21:47.357Z,33.84
2022-08-31T07:27:00.143Z,35.92
2022-08-31T07:32:13.729Z,37.36
2022-08-31T07:37:39.389Z,38.33
2022-08-31T07:42:47.202Z,38.44
2022-08-31T07:47:55.080Z,39.26
2022-08-31T07:53:08.517Z,39.65
2022-08-31T07:58:31.363Z,40.21
2022-08-31T08:03:41.041Z,40.50
2022-08-31T08:09:26.607Z,40.17
2022-08-31T08:14:39.436Z,38.67
2022-08-31T08:19:54.300Z,37.73
2022-08-31T08:25:01.140Z,36.89
2022-08-31T08:30:19.219Z,36.71
2022-08-31T08:35:32.201Z,37.21
2022-08-31T08:40:44.404Z,38.06
2022-08-31T08:45:55.366Z,39.00
2022-08-31T08:51:09.619Z,39.68
2022-08-31T08:56:33.418Z,40.04
2022-08-31T09:01:46.082Z,39.94
2022-08-31T09:06:59.793Z,39.20
2022-08-31T09:12:22.597Z,39.15
2022-08-31T09:17:46.210Z,38.88
2022-08-31T09:22:55.737Z,38.76
2022-08-31T09:28:04.077Z,38.53
2022-08-31T09:33:19.681Z,37.85
2022-08-31T09:38:31.295Z,37.29
2022-08-31T09:43:38.125Z,36.38
2022-08-31T09:48:51.979Z,36.87
2022-08-31T09:54:25.937Z,36.91
2022-08-31T09:59:37.580Z,36.47
2022-08-31T10:04:54.729Z,36.71
2022-08-31T10:10:04.667Z,37.24
2022-08-31T10:15:17.946Z,36.71
2022-08-31T10:20:30.860Z,36.69
2022-08-31T10:25:42.781Z,36.60
2022-08-31T10:30:58.249Z,34.86
2022-08-31T10:36:08.092Z,33.00
2022-08-31T10:41:18.999Z,32.61
2022-08-31T10:46:25.291Z,31.11
2022-08-31T10:51:41.086Z,29.04
2022-08-31T10:57:00.783Z,29.09
2022-08-31T11:02:26.890Z,30.65
2022-08-31T11:07:47.737Z,31.94
2022-08-31T11:13:00.884Z,32.58
2022-08-31T11:18:40.340Z,32.98
2022-08-31T11:24:03.970Z,31.61
2022-08-31T11:29:21.613Z,29.88
2022-08-31T11:34:34.677Z,28.67
2022-08-31T11:39:45.523Z,27.46
2022-08-31T11:45:07.642Z,27.73
2022-08-31T11:50:55.453Z,27.80
2022-08-31T11:56:06.593Z,27.74
2022-08-31T12:01:34.239Z,28.59
2022-08-31T12:07:11.342Z,28.92
2022-08-31T12:12:28.046Z,28.91
2022-08-31T12:17:44.406Z,29.15
2022-08-31T12:23:40.699Z,28.89
2022-08-31T12:29:10.078Z,28.82
2022-08-31T12:34:19.769Z,28.56
2022-08-31T12:39:32.117Z,27.90
2022-08-31T12:44:47.652Z,28.03
2022-08-31T12:50:05.891Z,27.90
2022-08-31T12:55:28.873Z,27.87
2022-08-31T13:00:39.446Z,27.40
2022-08-31T13:06:01.791Z,26.86
2022-08-31T13:11:24.413Z,26.93
2022-08-31T13:16:31.619Z,27.00
2022-08-31T13:21:38.341Z,27.20
2022-08-31T13:26:45.504Z,27.52
2022-08-31T13:31:52.674Z,27.75
2022-08-31T13:37:00.075Z,28.07
2022-08-31T13:42:08.417Z,28.34
2022-08-31T13:47:20.674Z,27.94
2022-08-31T13:52:29.111Z,27.11
2022-08-31T13:57:38.305Z,26.72
2022-08-31T14:02:44.994Z,26.44
2022-08-31T14:07:58.066Z,26.56
2022-08-31T14:13:18.426Z,26.75
2022-08-31T14:18:27.962Z,26.65
2022-08-31T14:23:36.019Z,26.34
2022-08-31T14:28:43.261Z,25.80
2022-08-31T14:33:56.015Z,25.74
2022-08-31T14:39:02.127Z,25.47
2022-08-31T14:44:09.460Z,25.10
2022-08-31T14:49:18.756Z,25.07
2022-08-31T14:54:24.808Z,24.99
2022-08-31T14:59:30.944Z,24.91
2022-08-31T15:04:45.407Z,24.66
2022-08-31T15:09:51.980Z,24.17
2022-08-31T15:15:00.725Z,23.74
2022-08-31T15:20:11.371Z,23.30
2022-08-31T15:25:18.514Z,22.81
2022-08-31T15:30:24.526Z,22.42
2022-08-31T15:35:31.923Z,22.11
2022-08-31T15:40:39.217Z,21.93
2022-08-31T15:46:57.805Z,21.79
2022-08-31T15:52:12.854Z,21.57
2022-08-31T15:57:18.989Z,21.49
2022-08-31T16:02:24.842Z,21.30
2022-08-31T16:07:30.982Z,20.97
2022-08-31T16:12:36.898Z,20.76
2022-08-31T16:17:43.142Z,20.57
2022-08-31T16:22:48.908Z,20.36
2022-08-31T16:27:57.823Z,20.13
2022-08-31T16:33:03.880Z,19.98
2022-08-31T16:38:09.824Z,19.85
2022-08-31T16:43:15.973Z,19.74
2022-08-31T16:48:40.446Z,19.66
2022-08-31T16:53:47.810Z,19.49
2022-08-31T16:58:55.176Z,19.33
2022-08-31T17:04:04.765Z,19.15
2022-08-31T17:09:16.153Z,18.98
2022-08-31T17:14:26.352Z,18.84
2022-08-31T17:19:34.800Z,18.72
2022-08-31T17:24:46.048Z,18.62
2022-08-31T17:29:53.900Z,18.50
2022-08-31T17:35:00.199Z,18.41
2022-08-31T17:40:09.484Z,18.35
2022-08-31T17:45:15.815Z,18.30
2022-08-31T17:50:21.883Z,18.25
2022-08-31T17:55:29.279Z,18.21
2022-08-31T18:00:35.967Z,18.14
2022-08-31T18:05:45.913Z,18.09
2022-08-31T18:10:53.542Z,18.04
2022-08-31T18:16:01.041Z,18.01
2022-08-31T18:21:08.884Z,18.00
2022-08-31T18:26:18.062Z,17.97
2022-08-31T18:31:30.769Z,17.95
2022-08-31T18:36:38.903Z,17.91
2022-08-31T18:42:08.333Z,17.85
2022-08-31T18:47:15.811Z,17.77
2022-08-31T18:52:22.827Z,17.70
2022-08-31T18:57:29.391Z,17.66
2022-08-31T19:02:40.424Z,17.60
2022-08-31T19:07:46.490Z,17.54
2022-08-31T19:12:52.342Z,17.45
2022-08-31T19:17:58.213Z,17.38
2022-08-31T19:23:05.333Z,17.29
2022-08-31T19:28:11.691Z,17.19
2022-08-31T19:33:18.897Z,17.09
2022-08-31T19:38:24.966Z,16.96
2022-08-31T19:43:53.645Z,16.83
2022-08-31T19:49:00.309Z,16.65
2022-08-31T19:54:09.092Z,16.54
2022-08-31T19:59:21.135Z,16.42
2022-08-31T20:04:29.797Z,16.32
2022-08-31T20:09:36.569Z,16.26
2022-08-31T20:14:42.431Z,16.20
2022-08-31T20:19:49.598Z,16.09
2022-08-31T20:24:55.642Z,15.97
2022-08-31T20:30:02.039Z,15.86
2022-08-31T20:35:09.384Z,15.81
2022-08-31T20:40:17.233Z,15.78
2022-08-31T20:45:23.359Z,15.74
2022-08-31T20:50:29.816Z,15.67
2022-08-31T20:55:35.779Z,15.55
2022-08-31T21:00:47.454Z,15.45
2022-08-31T21:05:53.255Z,15.33
2022-08-31T21:10:59.121Z,15.22
2022-08-31T21:16:05.563Z,15.14
2022-08-31T21:21:17.611Z,15.11
2022-08-31T21:26:25.994Z,15.05
2022-08-31T21:31:31.860Z,14.96
2022-08-31T21:36:41.150Z,14.82
2022-08-31T21:41:48.781Z,14.71
2022-08-31T21:46:54.658Z,14.60
2022-08-31T21:52:00.586Z,14.50
2022-08-31T21:57:06.943Z,14.42
2022-08-31T22:02:14.766Z,14.34
2022-08-31T22:07:20.956Z,14.36
2022-08-31T22:12:26.818Z,14.40
2022-08-31T22:17:59.352Z,14.40
2022-08-31T22:22:59.155Z,14.36
2022-08-31T22:28:06.449Z,14.30
2022-08-31T22:33:12.140Z,14.22
2022-08-31T22:38:19.129Z,14.13
2022-08-31T22:43:25.389Z,14.08
2022-08-31T22:48:31.301Z,14.06
2022-08-31T22:53:37.242Z,14.08
2022-08-31T22:58:43.760Z,14.07
2022-08-31T23:03:51.219Z,14.00
2022-08-31T23:08:58.253Z,13.88
2022-08-31T23:14:07.616Z,13.75
2022-08-31T23:19:16.536Z,13.59
2022-08-31T23:24:26.837Z,13.41
2022-08-31T23:29:35.219Z,13.25
2022-08-31T23:34:41.844Z,13.08
2022-08-31T23:39:48.194Z,13.00
2022-08-31T23:44:54.437Z,12.87
2022-08-31T23:50:02.858Z,12.68
2022-08-31T23:55:11.931Z,12.50
